This is the latest recevied weather packets stored in our database for station/object KC1TWD. If no packets are shown the sender has not sent any weather packets the latest 1 day(s).
| Time | Temp. | Humidity | Pressure | Rain* | Wind** | Luminosity | Snow |
|---|---|---|---|---|---|---|---|
| 1778078918 | 19.44° C | 72% | 1007.8 hPa | 0 mm | - | - | - |
| 1778078614 | 19.44° C | 71% | 1007.6 hPa | 0 mm | - | - | - |
| 1778078313 | 19.44° C | 71% | 1007.9 hPa | 0 mm | - | - | - |
| 1778076499 | 19.44° C | 73% | 1007.7 hPa | 0 mm | - | - | - |
| 1778074982 | 18.33° C | 76% | 1007.8 hPa | 0 mm | - | - | - |
| 1778074376 | 17.78° C | 78% | 1007.9 hPa | 0 mm | - | - | - |
| 1778073770 | 17.78° C | 78% | 1008.2 hPa | 0 mm | - | - | - |
| 1778073468 | 17.78° C | 77% | 1008.2 hPa | 0 mm | - | - | - |
| 1778072860 | 17.78° C | 78% | 1008.5 hPa | 0 mm | - | - | - |
| 1778072557 | 17.78° C | 81% | 1008.2 hPa | 0 mm | - | - | - |
| 1778071953 | 17.22° C | 81% | 1008.4 hPa | 0 mm | - | - | - |
| 1778069836 | 16.67° C | 80% | 1008.2 hPa | 0 mm | - | - | - |
| 1778068626 | 16.11° C | 82% | 1008.4 hPa | 0 mm | - | - | - |
| 1778067114 | 15° C | 87% | 1008.5 hPa | 0 mm | - | - | - |
| 1778066205 | 14.44° C | 88% | 1008.6 hPa | 0 mm | - | - | - |
| 1778065297 | 13.89° C | 90% | 1008.6 hPa | 0 mm | - | - | - |
| 1778064086 | 13.33° C | 90% | 1008.6 hPa | 0 mm | - | - | - |
| 1778063783 | 13.33° C | 89% | 1009 hPa | 0 mm | - | - | - |
| 1778063480 | 13.33° C | 90% | 1008.8 hPa | 0 mm | - | - | - |
| 1778063178 | 12.78° C | 90% | 1008.7 hPa | 0 mm | - | - | - |
| 1778062875 | 13.33° C | 89% | 1008.6 hPa | 0 mm | - | - | - |
| 1778061967 | 12.78° C | 90% | 1008.5 hPa | 0 mm | - | - | - |
| 1778060757 | 12.78° C | 91% | 1008.4 hPa | 0 mm | - | - | - |
| 1778060455 | 12.78° C | 90% | 1008.5 hPa | 0 mm | - | - | - |
| 1778060153 | 12.78° C | 91% | 1008.6 hPa | 0 mm | - | - | - |
* Rain latest hour (hover to see other rain measurements)
** Current wind speed in m/s (hover to see current wind gust speed)